Van Lear, Kentucky
Current Conditions -  °F | °C
As of 5:35 AM on Saturday 22 Nov 2014 (Local Time) from KSJS Reporting Station
Clear Clear  
Wind Chill: 27°   Ceiling: Unl
Heat Index: 32°   Visibility: 10mi
Dew Point: 15°   Wind: 5mph
Humidity: 50%   Direction: 190°S
Pressure: 30.36"   Gusts: NA
Location:  37.77°N, 82.76°W
Report Text: KSJS 221035Z AUTO 19004KT 10SM CLR 00/M09 A3036 RMK AO2 T00001093
Loading
Personal Weather Stations






























Interactive Weather Map New forecast layout! Learn more

10-Day Weather Forecast

Advertisements
Track Severe Weather on mobile